Time;durP1;ratioP1;P1;durP2;ratioP2;P2;SDS_P1;SDS_P2;PMS_P1;PMS_P2;Temp;Humidity;BMP_temperature;BMP_pressure;BME280_temperature;BME280_humidity;BME280_pressure;Samples;Min_cycle;Max_cycle;Signal;HPM_P1;HPM_P2
2022/02/07 00:00:21;;;;;;;17.27;4.25;;;;;;;4.67;85.82;100676.72;5030089;28;20401;-49
2022/02/07 00:05:29;;;;;;;18.73;4.30;;;;;;;4.68;86.36;100699.97;5032118;28;20061;-50
2022/02/07 00:07:58;;;;;;;16.42;4.40;;;;;;;4.69;85.35;100687.31;5032293;28;20041;-47
2022/02/07 00:10:26;;;;;;;19.63;4.45;;;;;;;4.72;84.58;100734.59;5032645;28;20077;-48
2022/02/07 00:12:54;;;;;;;18.75;4.75;;;;;;;4.70;84.25;100743.72;5032168;28;20045;-46
2022/02/07 00:15:21;;;;;;;18.23;4.78;;;;;;;4.72;84.35;100727.31;5031003;28;20040;-49
2022/02/07 00:17:49;;;;;;;20.23;5.13;;;;;;;4.75;84.70;100737.63;5036763;28;20046;-52
2022/02/07 00:20:20;;;;;;;16.27;4.63;;;;;;;4.74;84.26;100746.81;5036982;28;20042;-49
2022/02/07 00:22:48;;;;;;;21.40;5.07;;;;;;;4.74;84.65;100757.59;5035828;28;20404;-49
2022/02/07 00:25:17;;;;;;;18.10;4.80;;;;;;;4.73;85.38;100763.22;5035798;28;20045;-52
2022/02/07 00:27:45;;;;;;;16.25;4.40;;;;;;;4.72;85.52;100765.09;5035736;28;20054;-51
2022/02/07 00:30:14;;;;;;;16.98;4.28;;;;;;;4.72;85.68;100767.81;5034758;28;20068;-48
2022/02/07 00:32:42;;;;;;;20.52;4.35;;;;;;;4.72;85.60;100764.28;5035488;28;20049;-48
2022/02/07 00:35:14;;;;;;;18.42;4.20;;;;;;;4.72;85.48;100791.28;5039273;28;20061;-46
2022/02/07 00:37:48;;;;;;;15.55;4.20;;;;;;;4.72;84.18;100796.69;5055318;28;20049;-48
2022/02/07 00:40:33;;;;;;;19.88;4.40;;;;;;;4.73;83.91;100818.03;5055521;28;20052;-49
2022/02/07 00:43:04;;;;;;;16.33;4.18;;;;;;;4.74;82.28;100821.53;5052659;28;20040;-49
2022/02/07 00:48:01;;;;;;;13.55;3.53;;;;;;;4.68;79.39;100840.28;5039259;28;20064;-49
2022/02/07 00:50:34;;;;;;;10.05;3.38;;;;;;;4.66;78.85;100847.78;5036651;28;20523;-50
2022/02/07 00:53:03;;;;;;;21.08;3.90;;;;;;;4.67;79.25;100857.56;5034567;28;20058;-52
2022/02/07 00:55:31;;;;;;;15.57;3.67;;;;;;;4.67;79.15;100870.22;5036395;28;20443;-56
2022/02/07 00:57:59;;;;;;;13.50;3.92;;;;;;;4.67;79.29;100870.22;5034242;28;20051;-47
2022/02/07 01:00:26;;;;;;;8.73;3.30;;;;;;;4.66;78.73;100885.56;5034260;28;20053;-50
2022/02/07 01:02:54;;;;;;;13.48;3.42;;;;;;;4.65;78.39;100875.03;5035289;28;20044;-49
2022/02/07 01:05:22;;;;;;;11.88;3.00;;;;;;;4.62;78.58;100879.00;5036185;28;20065;-51
2022/02/07 01:07:52;;;;;;;10.55;2.88;;;;;;;4.63;78.89;100902.22;5034122;28;20448;-51
2022/02/07 01:10:29;;;;;;;11.15;3.40;;;;;;;4.60;79.09;100902.69;5034063;28;20124;-52
2022/02/07 01:13:24;;;;;;;12.00;3.15;;;;;;;4.62;78.99;100921.38;5033978;28;20408;-49
2022/02/07 01:19:02;;;;;;;11.27;3.53;;;;;;;4.46;83.48;101012.63;5039339;28;20484;-49
2022/02/07 01:53:15;;;;;;;6.93;2.30;;;;;;;4.02;85.25;101089.16;5012531;28;20072;-50
2022/02/07 01:56:01;;;;;;;6.90;2.10;;;;;;;4.03;85.37;101106.97;5000468;28;20054;-49
2022/02/07 01:58:29;;;;;;;5.68;2.10;;;;;;;4.00;85.23;101110.94;5013185;28;20081;-50
2022/02/07 02:00:57;;;;;;;9.25;2.47;;;;;;;3.96;85.59;101117.78;4980054;28;20046;-51
2022/02/07 02:03:25;;;;;;;9.35;2.38;;;;;;;3.95;86.56;101128.81;4995964;28;20050;-51
2022/02/07 02:05:57;;;;;;;7.85;2.70;;;;;;;3.91;87.32;101138.38;5013260;28;20042;-51
2022/02/07 02:08:55;;;;;;;7.82;2.72;;;;;;;3.89;87.85;101146.66;4993125;28;20050;-49
2022/02/07 02:11:24;;;;;;;12.40;3.33;;;;;;;3.88;88.57;101171.97;5015539;28;20175;-50
2022/02/07 02:16:44;;;;;;;13.38;3.30;;;;;;;3.94;88.51;101167.56;5012119;28;20101;-47
2022/02/07 02:19:51;;;;;;;12.38;3.20;;;;;;;3.95;88.55;101180.84;5012857;28;20045;-48
2022/02/07 02:47:20;;;;;;;10.13;2.90;;;;;;;4.01;84.53;101244.69;5052235;28;20479;-51
2022/02/07 02:50:07;;;;;;;12.20;3.00;;;;;;;4.04;84.24;101251.50;5052054;28;20044;-49
2022/02/07 02:52:37;;;;;;;14.32;3.08;;;;;;;4.07;84.24;101252.97;5049998;28;20511;-49
2022/02/07 02:55:08;;;;;;;12.30;3.13;;;;;;;4.07;84.25;101274.56;5050556;28;20041;-45
2022/02/07 02:57:35;;;;;;;12.68;3.63;;;;;;;4.04;84.19;101278.47;5051959;28;20044;-45
2022/02/07 03:00:05;;;;;;;12.45;3.63;;;;;;;4.03;84.10;101284.91;5051686;28;20106;-49
2022/02/07 03:02:33;;;;;;;15.27;3.80;;;;;;;4.06;84.98;101295.28;5050212;28;20055;-47
2022/02/07 03:05:01;;;;;;;10.77;3.42;;;;;;;4.08;85.13;101298.59;5050069;28;20039;-49
2022/02/07 03:07:29;;;;;;;13.80;4.07;;;;;;;4.07;84.93;101305.03;5051651;28;20154;-48
2022/02/07 03:10:00;;;;;;;15.18;3.35;;;;;;;4.10;85.12;101312.69;5051663;28;20072;-46
2022/02/07 03:12:30;;;;;;;19.15;3.67;;;;;;;4.08;84.91;101314.75;5050184;28;20033;-49
2022/02/07 03:16:36;;;;;;;15.40;4.32;;;;;;;4.08;85.19;101322.84;5051784;28;20087;-46
2022/02/07 03:17:45;;;;;;;15.63;3.38;;;;;;;4.07;84.67;101323.91;5033961;28;20045;-54
2022/02/07 03:20:13;;;;;;;13.45;3.53;;;;;;;4.08;85.03;101330.94;5031713;28;20095;-53
2022/02/07 03:22:41;;;;;;;14.23;3.83;;;;;;;4.11;84.58;101341.28;5032809;28;20064;-52
2022/02/07 03:25:09;;;;;;;15.13;4.53;;;;;;;4.11;85.00;101346.69;5031834;28;20059;-51
2022/02/07 03:27:46;;;;;;;15.20;4.25;;;;;;;4.12;84.36;101356.47;5032884;28;20042;-52
2022/02/07 03:30:26;;;;;;;13.68;3.58;;;;;;;4.13;84.63;101360.78;5031311;28;20091;-53
2022/02/07 03:32:54;;;;;;;14.23;3.63;;;;;;;4.15;84.10;101369.50;5031390;28;20049;-50
2022/02/07 03:35:22;;;;;;;14.80;3.80;;;;;;;4.17;84.66;101372.81;5032422;28;20049;-50
2022/02/07 03:37:49;;;;;;;15.35;3.70;;;;;;;4.19;84.17;101381.53;5033705;28;20117;-52
2022/02/07 03:40:19;;;;;;;14.70;3.83;;;;;;;4.18;83.18;101379.88;5031550;28;20053;-47
2022/02/07 03:42:47;;;;;;;14.25;3.90;;;;;;;4.20;83.05;101390.44;5032490;28;20037;-46
2022/02/07 03:45:15;;;;;;;11.38;3.83;;;;;;;4.20;83.45;101401.25;5031280;28;20045;-47
2022/02/07 03:47:48;;;;;;;13.45;4.07;;;;;;;4.20;82.95;101402.06;5032507;28;20048;-49
2022/02/07 03:50:19;;;;;;;14.07;4.10;;;;;;;4.19;83.21;101424.69;5033018;28;20132;-46
2022/02/07 03:52:51;;;;;;;19.10;4.22;;;;;;;4.20;82.67;101425.50;5036065;28;20054;-47
2022/02/07 03:55:23;;;;;;;16.48;3.88;;;;;;;4.20;83.32;101429.03;5035743;28;20172;-49
2022/02/07 03:57:54;;;;;;;17.58;4.22;;;;;;;4.21;82.93;101436.09;5035262;28;20137;-51
2022/02/07 04:00:22;;;;;;;15.02;3.85;;;;;;;4.24;82.87;101437.53;5037628;28;20041;-49
2022/02/07 04:03:05;;;;;;;14.98;4.40;;;;;;;4.25;82.92;101456.19;5035499;28;20084;-47
2022/02/07 04:08:21;;;;;;;20.30;4.55;;;;;;;4.26;82.55;101465.97;5035395;28;20049;-47
2022/02/07 04:11:00;;;;;;;22.73;4.40;;;;;;;4.30;82.61;101473.63;5036341;28;20057;-47
2022/02/07 04:13:32;;;;;;;17.63;4.00;;;;;;;4.32;82.29;101487.75;5036905;28;20061;-47
2022/02/07 04:16:05;;;;;;;14.82;4.05;;;;;;;4.31;82.64;101499.59;5036052;28;20045;-46
2022/02/07 04:18:52;;;;;;;21.08;5.05;;;;;;;4.33;83.11;101505.56;5034989;28;20128;-48
2022/02/07 04:21:22;;;;;;;18.70;4.40;;;;;;;4.36;82.33;101510.56;5036093;28;20454;-47
2022/02/07 04:23:51;;;;;;;17.27;4.35;;;;;;;4.38;82.36;101513.91;5035971;28;20099;-48
2022/02/07 04:26:34;;;;;;;16.23;4.43;;;;;;;4.40;82.43;101518.03;5036448;28;20044;-51
2022/02/07 04:29:03;;;;;;;13.70;3.40;;;;;;;4.43;81.92;101530.28;5034791;28;20565;-51
2022/02/07 04:31:36;;;;;;;17.67;4.30;;;;;;;4.44;82.13;101530.06;5035986;28;20049;-49
2022/02/07 04:34:05;;;;;;;17.15;4.40;;;;;;;4.45;81.42;101537.13;5035492;28;20053;-49
2022/02/07 04:36:33;;;;;;;15.48;4.60;;;;;;;4.46;81.28;101537.94;5035166;28;20045;-50
2022/02/07 04:39:01;;;;;;;19.15;4.22;;;;;;;4.48;81.53;101557.47;5035809;28;20045;-48
2022/02/07 04:41:29;;;;;;;15.50;4.25;;;;;;;4.50;81.20;101560.78;5035661;28;20042;-47
2022/02/07 04:44:06;;;;;;;15.82;4.30;;;;;;;4.52;81.71;101574.03;5035373;28;20042;-50
2022/02/07 04:52:56;;;;;;;19.00;4.82;;;;;;;4.57;81.22;101594.00;5037038;28;20046;-48
2022/02/07 05:02:39;;;;;;;16.02;4.88;;;;;;;4.60;82.56;101601.66;5035842;28;20045;-49
2022/02/07 05:05:25;;;;;;;15.63;4.45;;;;;;;4.61;82.63;101624.91;5034124;28;20408;-48
2022/02/07 05:13:46;;;;;;;13.38;4.20;;;;;;;4.66;83.19;101684.47;5053808;28;20064;-49
2022/02/07 05:16:27;;;;;;;14.50;4.70;;;;;;;4.63;84.18;101687.59;5053966;28;20095;-47
2022/02/07 05:19:04;;;;;;;16.90;4.85;;;;;;;4.60;86.25;101688.03;5053835;28;20041;-49
2022/02/07 05:21:51;;;;;;;18.45;4.82;;;;;;;4.57;87.46;101693.84;5039368;28;20056;-50
2022/02/07 05:24:41;;;;;;;17.77;4.25;;;;;;;4.53;88.05;101705.25;5035273;28;20132;-47
2022/02/07 05:27:28;;;;;;;;;;;;;;;4.49;88.57;101710.22;5035512;28;20038;-49
2022/02/07 05:30:15;;;;;;;21.10;5.13;;;;;;;4.45;89.99;101719.78;5033986;28;20276;-49
2022/02/07 05:33:02;;;;;;;;;;;;;;;4.43;90.75;101711.06;5036177;28;20488;-49
2022/02/07 05:35:48;;;;;;;17.30;4.25;;;;;;;4.43;90.73;101713.75;5034798;28;19921;-50
2022/02/07 05:38:36;;;;;;;17.75;4.70;;;;;;;4.42;91.47;101715.59;5033659;28;20041;-49
2022/02/07 05:41:24;;;;;;;20.50;5.22;;;;;;;4.44;91.54;101718.09;5036609;28;20131;-47
2022/02/07 05:44:08;;;;;;;17.85;4.70;;;;;;;4.44;91.46;101720.81;5034526;28;20046;-45
2022/02/07 05:47:04;;;;;;;17.55;4.78;;;;;;;4.46;91.55;101732.22;5033638;28;20041;-49
2022/02/07 05:50:07;;;;;;;15.73;4.53;;;;;;;4.47;91.58;101741.97;5027291;28;20056;-49
2022/02/07 05:52:44;;;;;;;19.05;4.85;;;;;;;4.47;91.88;101750.06;4996399;28;20042;-49
2022/02/07 05:55:27;;;;;;;16.60;4.68;;;;;;;4.47;92.17;101752.75;5012532;28;20034;-51
2022/02/07 05:58:07;;;;;;;15.77;4.82;;;;;;;4.46;92.22;101759.22;5012400;28;20076;-52
2022/02/07 06:00:59;;;;;;;17.60;5.15;;;;;;;4.46;91.36;101762.72;5011758;28;20042;-52
2022/02/07 06:03:26;;;;;;;14.98;4.65;;;;;;;4.46;91.15;101778.09;5032125;28;20155;-52
2022/02/07 06:06:13;;;;;;;15.95;4.25;;;;;;;4.46;91.10;101772.69;5015622;28;20038;-52
2022/02/07 06:08:43;;;;;;;16.70;4.78;;;;;;;4.46;90.62;101794.28;5015598;28;20508;-52
2022/02/07 06:11:14;;;;;;;20.15;4.85;;;;;;;4.46;90.36;101789.72;5001820;28;20057;-49
2022/02/07 06:13:44;;;;;;;13.88;3.85;;;;;;;4.46;90.75;101802.38;4994944;28;20495;-50
2022/02/07 06:16:16;;;;;;;18.10;4.25;;;;;;;4.46;91.16;101802.38;4995786;28;20045;-52
2022/02/07 06:18:49;;;;;;;21.35;5.15;;;;;;;4.46;91.51;101805.09;5012264;28;20066;-50
2022/02/07 06:21:19;;;;;;;16.75;4.68;;;;;;;4.44;91.54;101812.53;5020495;28;20060;-52
2022/02/07 06:23:47;;;;;;;19.60;5.63;;;;;;;4.39;92.39;101813.16;5019468;28;20070;-51
2022/02/07 06:26:19;;;;;;;22.02;6.05;;;;;;;4.33;93.33;101827.47;5032707;28;20557;-51
2022/02/07 06:28:49;;;;;;;18.33;5.15;;;;;;;4.31;93.31;101839.50;5032476;28;20099;-54
2022/02/07 06:31:17;;;;;;;18.95;4.82;;;;;;;4.29;93.87;101838.84;5035427;28;20049;-52
2022/02/07 06:33:45;;;;;;;19.02;4.25;;;;;;;4.29;93.86;101855.88;5051931;28;20426;-51
2022/02/07 06:36:15;;;;;;;18.33;4.30;;;;;;;4.30;94.16;101849.44;5052608;28;20099;-50
2022/02/07 06:38:43;;;;;;;16.98;4.07;;;;;;;4.32;93.89;101855.47;5052360;28;20044;-51
2022/02/07 06:41:11;;;;;;;16.25;4.45;;;;;;;4.31;94.22;101856.50;5035837;28;20549;-49
2022/02/07 06:43:40;;;;;;;19.08;4.45;;;;;;;4.31;94.12;101863.78;5033407;28;20404;-52
2022/02/07 06:46:11;;;;;;;14.48;4.53;;;;;;;4.31;94.12;101864.59;5032142;28;20557;-49
2022/02/07 06:48:41;;;;;;;16.05;4.57;;;;;;;4.32;94.32;101866.25;5032383;28;20092;-49
2022/02/07 06:51:12;;;;;;;20.38;4.80;;;;;;;4.34;94.37;101879.56;5032305;28;20042;-50
2022/02/07 06:53:45;;;;;;;13.77;4.03;;;;;;;4.36;94.41;101891.81;5033072;28;20117;-50
2022/02/07 06:56:13;;;;;;;16.35;4.55;;;;;;;4.35;94.75;101892.81;5015564;28;20050;-52
2022/02/07 06:58:42;;;;;;;20.65;4.70;;;;;;;4.36;94.55;101899.06;5034740;28;20119;-51
2022/02/07 07:01:10;;;;;;;18.05;4.63;;;;;;;4.37;94.53;101911.53;5051638;28;20041;-53
2022/02/07 07:03:42;;;;;;;16.95;4.40;;;;;;;4.38;94.40;101902.41;5044176;28;20048;-52
2022/02/07 07:06:12;;;;;;;13.77;4.35;;;;;;;4.40;94.83;101911.13;5031670;28;20080;-50
2022/02/07 07:08:51;;;;;;;13.48;3.97;;;;;;;4.40;94.96;101905.72;5031701;28;20123;-55
2022/02/07 07:11:23;;;;;;;12.88;4.35;;;;;;;4.41;94.66;101907.41;5031637;28;20088;-52
2022/02/07 07:14:00;;;;;;;15.32;4.47;;;;;;;4.41;94.22;101908.22;5034614;28;20049;-48
2022/02/07 07:19:00;;;;;;;15.63;4.05;;;;;;;4.40;93.98;101921.91;5031351;28;20042;-51
2022/02/07 07:21:28;;;;;;;15.27;4.47;;;;;;;4.40;94.00;101930.84;5031556;28;20080;-49
2022/02/07 07:23:56;;;;;;;19.35;4.38;;;;;;;4.41;94.35;101937.91;4690947;28;9999858;-53
2022/02/07 07:26:26;;;;;;;15.55;5.03;;;;;;;4.43;94.38;101949.34;5047835;28;20625;-50
2022/02/07 07:28:56;;;;;;;17.17;4.47;;;;;;;4.44;93.94;101951.00;5049347;28;20049;-52
2022/02/07 07:31:31;;;;;;;15.68;5.10;;;;;;;4.45;94.21;101957.25;5049477;28;20067;-49
2022/02/07 07:33:59;;;;;;;16.27;4.45;;;;;;;4.46;94.27;101969.69;5049212;28;20041;-50
2022/02/07 07:36:28;;;;;;;17.52;4.72;;;;;;;4.46;93.48;101980.50;5034983;28;20042;-49
2022/02/07 07:38:57;;;;;;;18.45;4.93;;;;;;;4.46;93.84;101993.97;5029630;28;20127;-50
2022/02/07 07:41:27;;;;;;;18.85;4.82;;;;;;;4.46;93.71;102008.31;5029539;28;20049;-50
2022/02/07 07:44:01;;;;;;;21.13;5.10;;;;;;;4.48;93.51;102021.59;5029807;28;20042;-50
2022/02/07 07:46:55;;;;;;;19.63;5.20;;;;;;;4.49;93.85;102044.84;5040917;28;20041;-51
2022/02/07 07:49:41;;;;;;;16.30;4.32;;;;;;;4.50;93.75;102033.03;5050734;28;20053;-49
2022/02/07 07:52:57;;;;;;;19.83;5.07;;;;;;;4.53;93.75;102048.84;5050387;28;20063;-49
2022/02/07 08:03:51;;;;;;;16.27;4.72;;;;;;;4.73;93.46;102072.41;5032405;28;20053;-49
2022/02/07 08:06:26;;;;;;;16.20;4.45;;;;;;;4.73;93.30;102092.16;5032157;28;20037;-49
2022/02/07 08:11:40;;;;;;;20.65;5.47;;;;;;;4.80;93.52;102103.00;5031389;28;20073;-47
2022/02/07 08:14:09;;;;;;;21.33;5.38;;;;;;;4.78;93.88;102111.28;5032491;28;20484;-52
2022/02/07 08:16:37;;;;;;;20.48;5.22;;;;;;;4.78;93.57;102126.66;5018078;28;20531;-49
2022/02/07 08:19:08;;;;;;;19.23;5.57;;;;;;;4.79;93.63;102120.25;5032536;28;20413;-48
2022/02/07 08:21:36;;;;;;;21.23;5.00;;;;;;;4.82;94.04;102127.94;5031020;28;20069;-48
2022/02/07 08:24:06;;;;;;;18.63;5.05;;;;;;;4.85;94.29;102131.06;5032279;28;20048;-48
2022/02/07 08:26:34;;;;;;;19.50;5.63;;;;;;;4.90;94.26;102127.78;5034385;28;20048;-48
2022/02/07 08:29:02;;;;;;;24.05;5.50;;;;;;;4.91;94.05;102124.88;5043739;28;20048;-51
2022/02/07 08:31:30;;;;;;;21.13;5.40;;;;;;;4.92;94.24;102120.31;5052317;28;20036;-48
2022/02/07 08:33:57;;;;;;;18.63;5.10;;;;;;;4.92;94.34;102120.31;5052103;28;20518;-48
2022/02/07 08:36:25;;;;;;;25.23;6.20;;;;;;;4.93;94.53;102121.13;5049711;28;20052;-48
2022/02/07 08:38:53;;;;;;;18.35;5.22;;;;;;;4.88;94.98;102129.84;5056098;28;20411;-49
2022/02/07 08:41:20;;;;;;;21.58;4.60;;;;;;;4.86;95.11;102126.53;5045331;28;20503;-48
2022/02/07 08:43:48;;;;;;;19.65;5.28;;;;;;;4.83;95.01;102132.28;5045509;28;20483;-51
2022/02/07 08:46:16;;;;;;;19.60;4.53;;;;;;;4.88;95.32;102135.22;5053875;28;20128;-52
2022/02/07 08:48:43;;;;;;;18.85;4.70;;;;;;;4.86;95.44;102143.56;5055733;28;20054;-50
2022/02/07 08:51:11;;;;;;;15.57;4.80;;;;;;;4.85;94.79;102141.03;5055955;28;20045;-49
2022/02/07 08:53:42;;;;;;;17.10;5.25;;;;;;;4.84;94.88;102142.09;5055616;28;20033;-50
2022/02/07 08:56:11;;;;;;;20.15;5.18;;;;;;;4.87;95.15;102144.38;5053893;28;20055;-53
2022/02/07 08:58:43;;;;;;;19.25;5.15;;;;;;;4.91;95.67;102145.66;5054525;28;20056;-52
2022/02/07 09:01:23;;;;;;;19.75;4.68;;;;;;;4.96;95.26;102158.56;5054284;28;20067;-52
2022/02/07 09:11:34;;;;;;;29.35;6.00;;;;;;;5.02;95.17;102182.91;5035387;28;20042;-50
2022/02/07 09:14:09;;;;;;;24.88;6.60;;;;;;;5.03;95.43;102190.00;5035392;28;20049;-51
2022/02/07 09:16:38;;;;;;;21.30;5.55;;;;;;;5.05;95.41;102200.59;5035992;28;20408;-52
2022/02/07 09:19:08;;;;;;;18.73;5.38;;;;;;;5.06;95.15;102205.81;5035143;28;20128;-51
2022/02/07 09:21:37;;;;;;;22.05;5.28;;;;;;;5.06;94.86;102224.72;5035332;28;20045;-49
2022/02/07 09:24:08;;;;;;;19.75;5.00;;;;;;;5.08;95.27;102221.81;5035284;28;20037;-49
2022/02/07 09:26:36;;;;;;;18.77;4.85;;;;;;;5.10;94.64;102226.00;5035321;28;20045;-52
2022/02/07 09:29:04;;;;;;;20.92;5.32;;;;;;;5.11;94.81;102222.25;5035877;28;20072;-49
2022/02/07 09:31:31;;;;;;;20.85;5.07;;;;;;;5.15;95.15;102232.66;5050641;28;20081;-50
2022/02/07 09:33:59;;;;;;;24.20;5.22;;;;;;;5.20;94.84;102235.63;5054395;28;20049;-50
2022/02/07 09:36:28;;;;;;;22.00;5.30;;;;;;;5.20;94.75;102235.63;5054671;28;20118;-48
2022/02/07 09:38:56;;;;;;;21.83;5.55;;;;;;;5.22;94.46;102237.09;5052887;28;20048;-52
2022/02/07 09:41:29;;;;;;;25.48;5.80;;;;;;;5.25;94.61;102243.97;5053276;28;20048;-53
2022/02/07 09:43:58;;;;;;;25.08;5.82;;;;;;;5.27;94.94;102252.72;5054747;28;20048;-49
2022/02/07 09:49:25;;;;;;;22.25;5.22;;;;;;;5.34;94.33;102264.41;5032011;28;20057;-52
2022/02/07 09:51:53;;;;;;;20.17;5.40;;;;;;;5.40;94.37;102274.41;5032577;28;20117;-50
2022/02/07 09:54:22;;;;;;;29.55;5.90;;;;;;;5.41;94.80;102280.66;5032160;28;20049;-49
2022/02/07 09:56:52;;;;;;;24.73;5.82;;;;;;;5.43;94.87;102294.81;5015790;28;20045;-50
2022/02/07 09:59:23;;;;;;;26.27;6.03;;;;;;;5.44;94.41;102301.91;5033187;28;20064;-51
2022/02/07 10:01:53;;;;;;;21.77;5.32;;;;;;;5.46;95.15;102316.03;5031902;28;20084;-50
2022/02/07 10:04:29;;;;;;;17.33;4.82;;;;;;;5.47;94.38;102318.53;5032184;28;20076;-52
2022/02/07 10:07:09;;;;;;;22.23;5.17;;;;;;;5.47;94.63;102329.34;5033023;28;20125;-50
2022/02/07 10:09:48;;;;;;;19.05;4.50;;;;;;;5.46;94.88;102334.94;5031825;28;20645;-50
2022/02/07 10:40:36;;;;;;;22.55;5.70;;;;;;;5.63;95.46;102381.44;5013396;28;20057;-49
2022/02/07 10:43:45;;;;;;;28.33;5.97;;;;;;;5.67;94.91;102382.75;4998350;28;20062;-49
2022/02/07 10:46:16;;;;;;;20.73;5.30;;;;;;;5.69;95.79;102391.50;5009095;28;20120;-50
2022/02/07 10:48:54;;;;;;;25.10;6.10;;;;;;;5.69;96.57;102396.91;5028375;28;20803;-49
2022/02/07 10:51:25;;;;;;;19.20;4.78;;;;;;;5.70;96.67;102390.44;5030764;28;20428;-50
2022/02/07 10:53:55;;;;;;;25.55;5.90;;;;;;;5.71;96.87;102394.84;5031086;28;20046;-51
2022/02/07 10:56:35;;;;;;;21.15;5.82;;;;;;;5.73;96.72;102398.19;5030998;28;20050;-51
2022/02/07 10:59:08;;;;;;;22.05;5.15;;;;;;;5.78;96.28;102394.91;5018350;28;20053;-51
2022/02/07 11:04:13;;;;;;;24.98;6.05;;;;;;;5.89;95.77;102410.56;5012700;28;20060;-50
2022/02/07 11:06:45;;;;;;;21.42;4.93;;;;;;;5.90;94.92;102399.56;5028944;28;20125;-51
2022/02/07 11:09:20;;;;;;;19.27;4.78;;;;;;;5.91;95.00;102406.63;5030740;28;20058;-50
2022/02/07 11:12:07;;;;;;;18.33;4.93;;;;;;;5.95;94.95;102402.53;5010859;28;20046;-46
2022/02/07 11:14:58;;;;;;;23.15;4.97;;;;;;;5.97;93.07;102405.88;5010941;28;20133;-50
2022/02/07 11:17:49;;;;;;;20.20;5.10;;;;;;;5.96;93.69;102420.44;5032875;28;20037;-46
2022/02/07 11:23:12;;;;;;;26.05;6.22;;;;;;;5.99;93.17;102405.69;5032583;28;20049;-49
2022/02/07 11:25:51;;;;;;;21.70;5.25;;;;;;;6.01;91.78;102414.41;5032604;28;20095;-48
2022/02/07 11:28:28;;;;;;;18.70;4.23;;;;;;;6.01;91.25;102416.28;4337542;28;10000256;-51
2022/02/07 11:31:04;;;;;;;19.33;5.10;;;;;;;6.02;90.77;102423.38;5030456;28;20083;-49
2022/02/07 11:33:53;;;;;;;24.85;5.97;;;;;;;6.02;91.27;102412.56;5029476;28;20072;-49
2022/02/07 11:36:25;;;;;;;17.92;4.57;;;;;;;6.03;91.35;102420.47;5031045;28;20062;-48
2022/02/07 11:39:06;;;;;;;19.60;4.57;;;;;;;6.04;91.67;102413.19;5038932;28;20045;-50
2022/02/07 11:41:56;;;;;;;21.05;4.95;;;;;;;6.06;91.23;102419.22;5048893;28;20029;-49
2022/02/07 11:44:28;;;;;;;18.45;4.85;;;;;;;6.12;89.05;102440.09;5049436;28;20511;-49
2022/02/07 11:47:24;;;;;;;21.25;5.40;;;;;;;6.08;87.59;102422.59;5050744;28;20086;-51
2022/02/07 11:49:55;;;;;;;21.70;4.70;;;;;;;6.06;87.43;102430.91;5049236;28;20045;-48
2022/02/07 11:52:47;;;;;;;14.45;4.18;;;;;;;6.08;87.79;102428.81;5047926;28;20048;-49
2022/02/07 11:55:19;;;;;;;19.98;4.97;;;;;;;6.05;87.14;102434.63;5050774;28;20033;-52
2022/02/07 11:58:06;;;;;;;22.70;5.43;;;;;;;6.03;85.26;102425.88;5050763;28;20598;-52
2022/02/07 12:00:36;;;;;;;19.25;4.72;;;;;;;6.03;83.18;102438.56;5040603;28;20411;-52
2022/02/07 12:03:07;;;;;;;18.30;4.18;;;;;;;6.05;82.13;102437.34;5031836;28;20042;-51
2022/02/07 12:05:42;;;;;;;18.25;4.13;;;;;;;6.06;81.82;102430.06;5030856;28;20045;-52
2022/02/07 12:08:21;;;;;;;14.55;3.90;;;;;;;6.08;82.36;102436.09;5030749;28;20037;-51
2022/02/07 12:11:07;;;;;;;18.80;4.63;;;;;;;6.09;81.28;102429.69;5050422;28;20045;-50
2022/02/07 12:13:40;;;;;;;25.17;4.95;;;;;;;6.10;81.54;102431.34;5054556;28;20067;-49
2022/02/07 12:16:18;;;;;;;16.35;3.78;;;;;;;6.16;81.68;102441.38;5054594;28;20049;-52
2022/02/07 12:19:08;;;;;;;19.48;4.18;;;;;;;6.23;82.42;102442.25;5054362;28;20053;-49
2022/02/07 12:21:38;;;;;;;15.65;3.83;;;;;;;6.28;82.06;102445.22;5034232;28;20111;-52
2022/02/07 12:24:06;;;;;;;12.93;3.60;;;;;;;6.28;80.48;102450.63;5034270;28;20484;-52
2022/02/07 12:26:40;;;;;;;17.58;4.05;;;;;;;6.18;81.08;102453.69;5034321;28;20038;-48
2022/02/07 12:29:20;;;;;;;14.43;4.28;;;;;;;6.15;80.75;102451.34;5046172;28;20487;-46
2022/02/07 12:31:48;;;;;;;16.65;3.97;;;;;;;6.14;79.68;102455.09;5022050;28;20053;-52
2022/02/07 12:34:16;;;;;;;15.90;4.13;;;;;;;6.11;77.55;102449.25;5043357;28;20114;-52
2022/02/07 12:36:44;;;;;;;13.15;4.10;;;;;;;6.11;77.29;102451.94;5052898;28;20040;-49
2022/02/07 12:39:15;;;;;;;14.10;3.65;;;;;;;6.11;77.65;102452.81;5040991;28;20034;-49
2022/02/07 12:41:45;;;;;;;15.43;4.15;;;;;;;6.13;78.78;102450.75;5032565;28;20048;-50
2022/02/07 12:44:22;;;;;;;17.15;3.80;;;;;;;6.14;79.47;102454.28;5034084;28;20045;-50
2022/02/07 12:46:53;;;;;;;17.42;4.47;;;;;;;6.19;79.92;102457.22;5034056;28;20054;-50
2022/02/07 12:49:24;;;;;;;15.75;3.80;;;;;;;6.24;80.46;102464.75;5032698;28;20076;-50
2022/02/07 12:51:52;;;;;;;13.77;3.83;;;;;;;6.27;78.59;102465.16;5034249;28;20057;-49
2022/02/07 12:54:21;;;;;;;16.08;3.85;;;;;;;6.32;78.59;102473.53;5033631;28;20132;-46
2022/02/07 12:56:50;;;;;;;18.88;4.90;;;;;;;6.34;79.07;102471.47;5033853;28;20037;-48
2022/02/07 12:59:18;;;;;;;21.23;5.40;;;;;;;6.35;78.04;102478.56;5033397;28;20041;-50
2022/02/07 13:01:46;;;;;;;16.45;3.72;;;;;;;6.38;78.31;102467.34;5034193;28;20049;-51
2022/02/07 13:04:19;;;;;;;15.70;4.10;;;;;;;6.44;79.35;102472.97;5033559;28;20076;-52
2022/02/07 13:06:49;;;;;;;14.25;3.60;;;;;;;6.49;79.28;102484.03;5033284;28;20087;-50
2022/02/07 13:09:25;;;;;;;13.32;3.58;;;;;;;6.54;79.15;102465.31;5033433;28;20052;-49
2022/02/07 13:12:04;;;;;;;13.73;3.55;;;;;;;6.58;78.73;102477.44;5034610;28;20125;-49
2022/02/07 13:14:50;;;;;;;14.10;3.60;;;;;;;6.60;76.43;102475.34;5033760;28;20041;-50
2022/02/07 13:17:22;;;;;;;14.10;3.35;;;;;;;6.54;74.16;102501.38;5033228;28;20045;-50
2022/02/07 13:19:52;;;;;;;12.90;3.67;;;;;;;6.45;74.04;102499.88;5033684;28;20041;-50
2022/02/07 13:22:22;;;;;;;11.55;3.10;;;;;;;6.43;73.70;102501.94;5033715;28;20069;-51
2022/02/07 13:24:51;;;;;;;14.75;3.70;;;;;;;6.44;74.50;102497.34;5032924;28;20144;-48
2022/02/07 13:27:20;;;;;;;14.25;3.35;;;;;;;6.48;74.69;102499.47;5033272;28;20038;-52
2022/02/07 13:29:51;;;;;;;13.55;3.53;;;;;;;6.52;75.31;102502.63;5033019;28;20389;-51
2022/02/07 13:32:30;;;;;;;17.98;3.25;;;;;;;6.56;74.14;102518.25;5033874;28;20068;-49
2022/02/07 13:35:08;;;;;;;15.45;3.22;;;;;;;6.59;74.20;102517.00;5033425;28;20087;-50
2022/02/07 13:37:40;;;;;;;15.15;3.92;;;;;;;6.61;74.80;102526.63;5034897;28;20059;-49
2022/02/07 13:40:17;;;;;;;12.32;3.58;;;;;;;6.66;74.21;102530.59;5034804;28;20518;-51
2022/02/07 13:42:48;;;;;;;11.75;3.05;;;;;;;6.63;74.31;102537.25;5035717;28;20521;-50
2022/02/07 13:45:22;;;;;;;11.90;3.30;;;;;;;6.63;75.02;102542.66;5034756;28;20200;-51
2022/02/07 13:47:57;;;;;;;10.27;3.13;;;;;;;6.66;74.22;102526.00;5034315;28;20045;-49
2022/02/07 13:50:28;;;;;;;14.30;3.10;;;;;;;6.67;74.17;102524.97;5034488;28;20052;-51
2022/02/07 13:53:02;;;;;;;11.23;3.33;;;;;;;6.70;75.25;102524.56;5035529;28;20115;-49
2022/02/07 13:55:40;;;;;;;16.50;3.58;;;;;;;6.69;73.73;102533.75;5033350;28;20041;-46
2022/02/07 13:58:10;;;;;;;14.40;3.58;;;;;;;6.66;73.09;102528.72;5034403;28;20037;-50
2022/02/07 14:00:47;;;;;;;11.40;3.15;;;;;;;6.63;73.89;102537.25;5033943;28;20042;-48
2022/02/07 14:03:25;;;;;;;12.75;3.10;;;;;;;6.61;73.84;102532.03;5053053;28;20091;-52
2022/02/07 14:06:17;;;;;;;11.63;3.60;;;;;;;6.59;73.93;102527.84;5054493;28;20142;-52
2022/02/07 14:08:52;;;;;;;19.45;4.40;;;;;;;6.59;73.01;102534.13;5031793;28;20054;-50
2022/02/07 14:11:28;;;;;;;14.27;3.13;;;;;;;6.57;73.35;102529.94;5031940;28;20065;-52
2022/02/07 14:14:01;;;;;;;15.27;3.50;;;;;;;6.51;72.90;102522.59;5011781;28;20058;-50
2022/02/07 14:16:30;;;;;;;9.60;3.17;;;;;;;6.49;73.36;102535.50;5011916;28;20473;-52
2022/02/07 14:18:58;;;;;;;11.43;3.08;;;;;;;6.46;72.82;102522.34;5011985;28;20129;-49
2022/02/07 14:21:31;;;;;;;15.65;3.78;;;;;;;6.52;73.30;102527.81;5011759;28;20115;-50
2022/02/07 14:23:59;;;;;;;19.55;3.72;;;;;;;6.57;73.41;102546.19;5012956;28;20073;-51